sensor_id;sensor_type;location;lat;lon;timestamp;P1;durP1;ratioP1;P2;durP2;ratioP2
20972;SDS011;10645;52.370;13.314;2022-11-12T00:02:38;0.70;;;0.70;;
20972;SDS011;10645;52.370;13.314;2022-11-12T00:05:23;2.47;;;1.30;;
20972;SDS011;10645;52.370;13.314;2022-11-12T00:08:08;0.33;;;0.33;;
20972;SDS011;10645;52.370;13.314;2022-11-12T00:10:53;0.40;;;0.40;;
20972;SDS011;10645;52.370;13.314;2022-11-12T00:13:38;0.83;;;0.80;;
20972;SDS011;10645;52.370;13.314;2022-11-12T00:16:22;2.17;;;1.50;;
20972;SDS011;10645;52.370;13.314;2022-11-12T00:19:07;7.23;;;1.23;;
20972;SDS011;10645;52.370;13.314;2022-11-12T00:21:52;1.07;;;1.07;;
20972;SDS011;10645;52.370;13.314;2022-11-12T00:24:36;1.43;;;1.17;;
20972;SDS011;10645;52.370;13.314;2022-11-12T00:27:21;0.80;;;0.80;;
20972;SDS011;10645;52.370;13.314;2022-11-12T00:30:06;0.63;;;0.63;;
20972;SDS011;10645;52.370;13.314;2022-11-12T00:32:51;0.60;;;0.43;;
20972;SDS011;10645;52.370;13.314;2022-11-12T00:35:36;1.20;;;1.07;;
20972;SDS011;10645;52.370;13.314;2022-11-12T00:38:21;4.60;;;1.13;;
20972;SDS011;10645;52.370;13.314;2022-11-12T00:41:05;1.00;;;0.90;;
20972;SDS011;10645;52.370;13.314;2022-11-12T00:43:50;1.17;;;1.00;;
20972;SDS011;10645;52.370;13.314;2022-11-12T00:46:34;1.23;;;1.17;;
20972;SDS011;10645;52.370;13.314;2022-11-12T00:49:19;0.57;;;0.57;;
20972;SDS011;10645;52.370;13.314;2022-11-12T00:52:04;0.97;;;0.83;;
20972;SDS011;10645;52.370;13.314;2022-11-12T00:54:49;0.37;;;0.37;;
20972;SDS011;10645;52.370;13.314;2022-11-12T00:57:33;4.13;;;1.90;;
20972;SDS011;10645;52.370;13.314;2022-11-12T01:00:19;1.47;;;1.37;;
20972;SDS011;10645;52.370;13.314;2022-11-12T01:03:04;1.23;;;1.20;;
20972;SDS011;10645;52.370;13.314;2022-11-12T01:05:49;1.07;;;1.03;;
20972;SDS011;10645;52.370;13.314;2022-11-12T01:08:34;1.23;;;1.13;;
20972;SDS011;10645;52.370;13.314;2022-11-12T01:11:20;0.50;;;0.50;;
20972;SDS011;10645;52.370;13.314;2022-11-12T01:14:09;1.17;;;1.17;;
20972;SDS011;10645;52.370;13.314;2022-11-12T01:16:55;0.93;;;0.57;;
20972;SDS011;10645;52.370;13.314;2022-11-12T01:19:40;1.83;;;0.70;;
20972;SDS011;10645;52.370;13.314;2022-11-12T01:22:25;0.73;;;0.73;;
20972;SDS011;10645;52.370;13.314;2022-11-12T01:25:10;0.90;;;0.90;;
20972;SDS011;10645;52.370;13.314;2022-11-12T01:27:54;1.17;;;0.93;;
20972;SDS011;10645;52.370;13.314;2022-11-12T01:30:39;0.93;;;0.83;;
20972;SDS011;10645;52.370;13.314;2022-11-12T01:33:23;1.30;;;1.30;;
20972;SDS011;10645;52.370;13.314;2022-11-12T01:36:09;1.07;;;1.03;;
20972;SDS011;10645;52.370;13.314;2022-11-12T01:38:54;2.03;;;1.30;;
20972;SDS011;10645;52.370;13.314;2022-11-12T01:41:40;1.03;;;0.83;;
20972;SDS011;10645;52.370;13.314;2022-11-12T01:44:27;1.77;;;0.97;;
20972;SDS011;10645;52.370;13.314;2022-11-12T01:47:21;0.93;;;0.93;;
20972;SDS011;10645;52.370;13.314;2022-11-12T01:50:14;1.37;;;1.17;;
20972;SDS011;10645;52.370;13.314;2022-11-12T01:53:07;0.97;;;0.97;;
20972;SDS011;10645;52.370;13.314;2022-11-12T01:55:54;3.73;;;2.00;;
20972;SDS011;10645;52.370;13.314;2022-11-12T01:58:39;0.87;;;0.43;;
20972;SDS011;10645;52.370;13.314;2022-11-12T02:01:24;1.90;;;0.67;;
20972;SDS011;10645;52.370;13.314;2022-11-12T02:04:09;1.43;;;1.37;;
20972;SDS011;10645;52.370;13.314;2022-11-12T02:06:54;0.83;;;0.83;;
20972;SDS011;10645;52.370;13.314;2022-11-12T02:09:40;0.83;;;0.83;;
20972;SDS011;10645;52.370;13.314;2022-11-12T02:12:25;0.60;;;0.60;;
20972;SDS011;10645;52.370;13.314;2022-11-12T02:15:29;0.83;;;0.73;;
20972;SDS011;10645;52.370;13.314;2022-11-12T02:18:14;0.23;;;0.23;;
20972;SDS011;10645;52.370;13.314;2022-11-12T02:21:02;1.40;;;1.27;;
20972;SDS011;10645;52.370;13.314;2022-11-12T02:23:58;0.60;;;0.60;;
20972;SDS011;10645;52.370;13.314;2022-11-12T02:26:49;0.87;;;0.87;;
20972;SDS011;10645;52.370;13.314;2022-11-12T02:29:36;0.23;;;0.23;;
20972;SDS011;10645;52.370;13.314;2022-11-12T02:32:29;0.63;;;0.63;;
20972;SDS011;10645;52.370;13.314;2022-11-12T02:35:14;0.33;;;0.30;;
20972;SDS011;10645;52.370;13.314;2022-11-12T02:37:59;0.73;;;0.73;;
20972;SDS011;10645;52.370;13.314;2022-11-12T02:40:43;0.40;;;0.40;;
20972;SDS011;10645;52.370;13.314;2022-11-12T02:43:28;1.13;;;0.87;;
20972;SDS011;10645;52.370;13.314;2022-11-12T02:46:13;1.70;;;0.93;;
20972;SDS011;10645;52.370;13.314;2022-11-12T02:48:58;1.00;;;0.70;;
20972;SDS011;10645;52.370;13.314;2022-11-12T02:51:42;1.23;;;1.13;;
20972;SDS011;10645;52.370;13.314;2022-11-12T02:54:27;1.10;;;0.73;;
20972;SDS011;10645;52.370;13.314;2022-11-12T02:57:12;0.37;;;0.37;;
20972;SDS011;10645;52.370;13.314;2022-11-12T02:59:57;0.60;;;0.57;;
20972;SDS011;10645;52.370;13.314;2022-11-12T03:02:42;0.53;;;0.50;;
20972;SDS011;10645;52.370;13.314;2022-11-12T03:05:27;0.70;;;0.70;;
20972;SDS011;10645;52.370;13.314;2022-11-12T03:08:13;0.17;;;0.17;;
20972;SDS011;10645;52.370;13.314;2022-11-12T03:10:58;0.97;;;0.73;;
20972;SDS011;10645;52.370;13.314;2022-11-12T03:13:48;1.67;;;1.43;;
20972;SDS011;10645;52.370;13.314;2022-11-12T03:16:33;1.10;;;1.00;;
20972;SDS011;10645;52.370;13.314;2022-11-12T03:19:17;2.37;;;1.20;;
20972;SDS011;10645;52.370;13.314;2022-11-12T03:22:02;4.83;;;1.63;;
20972;SDS011;10645;52.370;13.314;2022-11-12T03:24:47;1.00;;;1.00;;
20972;SDS011;10645;52.370;13.314;2022-11-12T03:27:32;2.13;;;1.07;;
20972;SDS011;10645;52.370;13.314;2022-11-12T03:30:16;0.77;;;0.77;;
20972;SDS011;10645;52.370;13.314;2022-11-12T03:33:02;0.50;;;0.50;;
20972;SDS011;10645;52.370;13.314;2022-11-12T03:35:47;0.90;;;0.90;;
20972;SDS011;10645;52.370;13.314;2022-11-12T03:38:31;0.73;;;0.70;;
20972;SDS011;10645;52.370;13.314;2022-11-12T03:41:16;0.93;;;0.93;;
20972;SDS011;10645;52.370;13.314;2022-11-12T03:44:01;0.53;;;0.30;;
20972;SDS011;10645;52.370;13.314;2022-11-12T03:46:46;1.87;;;1.73;;
20972;SDS011;10645;52.370;13.314;2022-11-12T03:49:30;0.43;;;0.43;;
20972;SDS011;10645;52.370;13.314;2022-11-12T03:52:15;1.00;;;0.90;;
20972;SDS011;10645;52.370;13.314;2022-11-12T03:55:00;6.57;;;1.87;;
20972;SDS011;10645;52.370;13.314;2022-11-12T03:57:46;0.90;;;0.90;;
20972;SDS011;10645;52.370;13.314;2022-11-12T04:00:32;2.17;;;0.97;;
20972;SDS011;10645;52.370;13.314;2022-11-12T04:03:17;1.40;;;1.23;;
20972;SDS011;10645;52.370;13.314;2022-11-12T04:06:01;1.03;;;0.87;;
20972;SDS011;10645;52.370;13.314;2022-11-12T04:09:05;0.73;;;0.63;;
20972;SDS011;10645;52.370;13.314;2022-11-12T04:11:50;0.30;;;0.30;;
20972;SDS011;10645;52.370;13.314;2022-11-12T04:14:34;0.37;;;0.33;;
20972;SDS011;10645;52.370;13.314;2022-11-12T04:17:19;1.53;;;1.43;;
20972;SDS011;10645;52.370;13.314;2022-11-12T04:20:23;1.20;;;1.13;;
20972;SDS011;10645;52.370;13.314;2022-11-12T04:23:27;1.33;;;1.23;;
20972;SDS011;10645;52.370;13.314;2022-11-12T04:26:11;0.80;;;0.80;;
20972;SDS011;10645;52.370;13.314;2022-11-12T04:29:08;0.80;;;0.70;;
20972;SDS011;10645;52.370;13.314;2022-11-12T04:32:12;2.13;;;0.40;;
20972;SDS011;10645;52.370;13.314;2022-11-12T04:34:57;0.90;;;0.87;;
20972;SDS011;10645;52.370;13.314;2022-11-12T04:37:43;1.43;;;0.93;;
20972;SDS011;10645;52.370;13.314;2022-11-12T04:40:28;2.93;;;1.40;;
20972;SDS011;10645;52.370;13.314;2022-11-12T04:43:32;1.03;;;0.77;;
20972;SDS011;10645;52.370;13.314;2022-11-12T04:46:35;2.47;;;1.63;;
20972;SDS011;10645;52.370;13.314;2022-11-12T04:49:20;1.00;;;0.40;;
20972;SDS011;10645;52.370;13.314;2022-11-12T04:52:05;1.07;;;1.07;;
20972;SDS011;10645;52.370;13.314;2022-11-12T04:54:50;1.67;;;1.57;;
20972;SDS011;10645;52.370;13.314;2022-11-12T04:57:35;0.20;;;0.20;;
20972;SDS011;10645;52.370;13.314;2022-11-12T05:00:20;1.20;;;1.10;;
20972;SDS011;10645;52.370;13.314;2022-11-12T05:03:05;0.33;;;0.33;;
20972;SDS011;10645;52.370;13.314;2022-11-12T05:05:49;0.33;;;0.33;;
20972;SDS011;10645;52.370;13.314;2022-11-12T05:08:34;1.63;;;1.53;;
20972;SDS011;10645;52.370;13.314;2022-11-12T05:11:19;0.20;;;0.20;;
20972;SDS011;10645;52.370;13.314;2022-11-12T05:14:04;0.87;;;0.80;;
20972;SDS011;10645;52.370;13.314;2022-11-12T05:16:49;2.00;;;1.33;;
20972;SDS011;10645;52.370;13.314;2022-11-12T05:19:35;0.60;;;0.60;;
20972;SDS011;10645;52.370;13.314;2022-11-12T05:22:19;1.07;;;1.07;;
20972;SDS011;10645;52.370;13.314;2022-11-12T05:25:05;2.43;;;1.30;;
20972;SDS011;10645;52.370;13.314;2022-11-12T05:27:51;1.07;;;0.43;;
20972;SDS011;10645;52.370;13.314;2022-11-12T05:30:35;0.40;;;0.40;;
20972;SDS011;10645;52.370;13.314;2022-11-12T05:33:20;2.03;;;1.60;;
20972;SDS011;10645;52.370;13.314;2022-11-12T05:36:05;0.87;;;0.80;;
20972;SDS011;10645;52.370;13.314;2022-11-12T05:38:49;0.50;;;0.50;;
20972;SDS011;10645;52.370;13.314;2022-11-12T05:41:34;1.30;;;1.30;;
20972;SDS011;10645;52.370;13.314;2022-11-12T05:44:19;0.30;;;0.30;;
20972;SDS011;10645;52.370;13.314;2022-11-12T05:47:04;20.77;;;1.73;;
20972;SDS011;10645;52.370;13.314;2022-11-12T05:49:49;1.20;;;0.43;;
20972;SDS011;10645;52.370;13.314;2022-11-12T05:52:33;0.97;;;0.77;;
20972;SDS011;10645;52.370;13.314;2022-11-12T05:55:18;0.40;;;0.40;;
20972;SDS011;10645;52.370;13.314;2022-11-12T05:58:04;0.80;;;0.80;;
20972;SDS011;10645;52.370;13.314;2022-11-12T06:00:49;0.23;;;0.23;;
20972;SDS011;10645;52.370;13.314;2022-11-12T06:03:34;0.50;;;0.43;;
20972;SDS011;10645;52.370;13.314;2022-11-12T06:06:18;0.77;;;0.77;;
20972;SDS011;10645;52.370;13.314;2022-11-12T06:09:03;0.10;;;0.10;;
20972;SDS011;10645;52.370;13.314;2022-11-12T06:11:48;0.93;;;0.93;;
20972;SDS011;10645;52.370;13.314;2022-11-12T06:14:33;0.30;;;0.30;;
20972;SDS011;10645;52.370;13.314;2022-11-12T06:17:18;0.67;;;0.67;;
20972;SDS011;10645;52.370;13.314;2022-11-12T06:20:02;0.50;;;0.50;;
20972;SDS011;10645;52.370;13.314;2022-11-12T06:22:48;1.60;;;0.83;;
20972;SDS011;10645;52.370;13.314;2022-11-12T06:25:33;0.57;;;0.47;;
20972;SDS011;10645;52.370;13.314;2022-11-12T06:28:17;0.60;;;0.57;;
20972;SDS011;10645;52.370;13.314;2022-11-12T06:31:02;0.57;;;0.57;;
20972;SDS011;10645;52.370;13.314;2022-11-12T06:33:47;0.50;;;0.20;;
20972;SDS011;10645;52.370;13.314;2022-11-12T06:36:32;0.87;;;0.87;;
20972;SDS011;10645;52.370;13.314;2022-11-12T06:39:18;0.80;;;0.60;;
20972;SDS011;10645;52.370;13.314;2022-11-12T06:42:04;0.47;;;0.47;;
20972;SDS011;10645;52.370;13.314;2022-11-12T06:44:48;0.83;;;0.83;;
20972;SDS011;10645;52.370;13.314;2022-11-12T06:47:33;0.73;;;0.73;;
20972;SDS011;10645;52.370;13.314;2022-11-12T06:50:18;0.63;;;0.63;;
20972;SDS011;10645;52.370;13.314;2022-11-12T06:53:02;1.33;;;1.03;;
20972;SDS011;10645;52.370;13.314;2022-11-12T06:55:47;0.87;;;0.67;;
20972;SDS011;10645;52.370;13.314;2022-11-12T06:58:31;0.30;;;0.13;;
20972;SDS011;10645;52.370;13.314;2022-11-12T07:01:17;2.20;;;1.17;;
20972;SDS011;10645;52.370;13.314;2022-11-12T07:04:02;4.57;;;1.00;;
20972;SDS011;10645;52.370;13.314;2022-11-12T07:06:46;5.83;;;5.10;;
20972;SDS011;10645;52.370;13.314;2022-11-12T07:09:31;10.20;;;9.27;;
20972;SDS011;10645;52.370;13.314;2022-11-12T07:12:16;22.23;;;12.77;;
20972;SDS011;10645;52.370;13.314;2022-11-12T07:15:01;49.83;;;29.83;;
20972;SDS011;10645;52.370;13.314;2022-11-12T07:17:45;47.40;;;33.17;;
20972;SDS011;10645;52.370;13.314;2022-11-12T07:20:30;35.83;;;21.70;;
20972;SDS011;10645;52.370;13.314;2022-11-12T07:23:14;12.53;;;10.30;;
20972;SDS011;10645;52.370;13.314;2022-11-12T07:26:00;6.33;;;5.13;;
20972;SDS011;10645;52.370;13.314;2022-11-12T07:28:55;2.43;;;1.50;;
20972;SDS011;10645;52.370;13.314;2022-11-12T07:31:40;2.17;;;2.00;;
20972;SDS011;10645;52.370;13.314;2022-11-12T07:34:25;0.67;;;0.67;;
20972;SDS011;10645;52.370;13.314;2022-11-12T07:37:09;1.40;;;1.13;;
20972;SDS011;10645;52.370;13.314;2022-11-12T07:39:54;1.30;;;0.63;;
20972;SDS011;10645;52.370;13.314;2022-11-12T07:42:40;1.70;;;1.60;;
20972;SDS011;10645;52.370;13.314;2022-11-12T07:45:24;0.83;;;0.83;;
20972;SDS011;10645;52.370;13.314;2022-11-12T07:48:09;1.07;;;0.87;;
20972;SDS011;10645;52.370;13.314;2022-11-12T07:51:01;1.30;;;0.70;;
20972;SDS011;10645;52.370;13.314;2022-11-12T07:53:50;2.33;;;0.93;;
20972;SDS011;10645;52.370;13.314;2022-11-12T07:56:36;10.83;;;6.67;;
20972;SDS011;10645;52.370;13.314;2022-11-12T07:59:20;25.27;;;15.87;;
20972;SDS011;10645;52.370;13.314;2022-11-12T08:02:06;16.07;;;13.83;;
20972;SDS011;10645;52.370;13.314;2022-11-12T08:04:53;14.63;;;11.23;;
20972;SDS011;10645;52.370;13.314;2022-11-12T08:07:37;8.37;;;6.43;;
20972;SDS011;10645;52.370;13.314;2022-11-12T08:10:22;3.43;;;2.67;;
20972;SDS011;10645;52.370;13.314;2022-11-12T08:13:07;2.17;;;1.67;;
20972;SDS011;10645;52.370;13.314;2022-11-12T08:15:52;1.37;;;1.37;;
20972;SDS011;10645;52.370;13.314;2022-11-12T08:18:40;2.10;;;2.00;;
20972;SDS011;10645;52.370;13.314;2022-11-12T08:21:25;3.20;;;1.77;;
20972;SDS011;10645;52.370;13.314;2022-11-12T08:24:10;2.47;;;2.27;;
20972;SDS011;10645;52.370;13.314;2022-11-12T08:26:54;1.20;;;1.10;;
20972;SDS011;10645;52.370;13.314;2022-11-12T08:29:39;3.57;;;2.27;;
20972;SDS011;10645;52.370;13.314;2022-11-12T08:32:24;1.67;;;1.57;;
20972;SDS011;10645;52.370;13.314;2022-11-12T08:35:09;2.53;;;2.20;;
20972;SDS011;10645;52.370;13.314;2022-11-12T08:38:00;2.20;;;2.10;;
20972;SDS011;10645;52.370;13.314;2022-11-12T08:40:46;2.97;;;2.27;;
20972;SDS011;10645;52.370;13.314;2022-11-12T08:43:31;2.40;;;1.52;;
20972;SDS011;10645;52.370;13.314;2022-11-12T08:46:15;3.40;;;3.10;;
20972;SDS011;10645;52.370;13.314;2022-11-12T08:49:00;1.88;;;1.77;;
20972;SDS011;10645;52.370;13.314;2022-11-12T08:51:45;3.08;;;2.38;;
20972;SDS011;10645;52.370;13.314;2022-11-12T08:54:29;2.75;;;2.35;;
20972;SDS011;10645;52.370;13.314;2022-11-12T08:57:14;1.67;;;1.58;;
20972;SDS011;10645;52.370;13.314;2022-11-12T08:59:59;2.58;;;2.20;;
20972;SDS011;10645;52.370;13.314;2022-11-12T09:02:43;1.52;;;1.42;;
20972;SDS011;10645;52.370;13.314;2022-11-12T09:05:28;2.80;;;2.10;;
20972;SDS011;10645;52.370;13.314;2022-11-12T09:08:17;7.07;;;2.95;;
20972;SDS011;10645;52.370;13.314;2022-11-12T09:11:03;2.60;;;2.40;;
20972;SDS011;10645;52.370;13.314;2022-11-12T09:13:51;1.75;;;1.05;;
20972;SDS011;10645;52.370;13.314;2022-11-12T09:16:36;3.08;;;1.77;;
20972;SDS011;10645;52.370;13.314;2022-11-12T09:19:21;1.08;;;1.00;;
20972;SDS011;10645;52.370;13.314;2022-11-12T09:22:06;2.55;;;1.70;;
20972;SDS011;10645;52.370;13.314;2022-11-12T09:24:51;1.52;;;1.42;;
20972;SDS011;10645;52.370;13.314;2022-11-12T09:27:35;2.40;;;2.20;;
20972;SDS011;10645;52.370;13.314;2022-11-12T09:30:20;1.70;;;1.60;;
20972;SDS011;10645;52.370;13.314;2022-11-12T09:33:06;3.03;;;2.38;;
20972;SDS011;10645;52.370;13.314;2022-11-12T09:35:50;3.90;;;2.97;;
20972;SDS011;10645;52.370;13.314;2022-11-12T09:38:35;4.68;;;2.30;;
20972;SDS011;10645;52.370;13.314;2022-11-12T09:41:27;1.25;;;1.15;;
20972;SDS011;10645;52.370;13.314;2022-11-12T09:44:22;2.88;;;2.33;;
20972;SDS011;10645;52.370;13.314;2022-11-12T09:47:18;2.53;;;2.42;;
20972;SDS011;10645;52.370;13.314;2022-11-12T09:53:30;4.90;;;2.20;;
20972;SDS011;10645;52.370;13.314;2022-11-12T09:56:19;2.05;;;1.60;;
20972;SDS011;10645;52.370;13.314;2022-11-12T09:59:08;2.28;;;2.10;;
20972;SDS011;10645;52.370;13.314;2022-11-12T10:01:57;2.00;;;1.67;;
20972;SDS011;10645;52.370;13.314;2022-11-12T10:08:25;2.20;;;2.05;;
20972;SDS011;10645;52.370;13.314;2022-11-12T10:11:30;2.33;;;2.13;;
20972;SDS011;10645;52.370;13.314;2022-11-12T10:15:08;2.15;;;1.95;;
20972;SDS011;10645;52.370;13.314;2022-11-12T10:21:27;1.90;;;1.75;;
20972;SDS011;10645;52.370;13.314;2022-11-12T10:24:19;2.88;;;2.45;;
20972;SDS011;10645;52.370;13.314;2022-11-12T10:27:12;2.78;;;2.50;;
20972;SDS011;10645;52.370;13.314;2022-11-12T10:30:03;9.27;;;3.22;;
20972;SDS011;10645;52.370;13.314;2022-11-12T10:32:50;3.50;;;2.65;;
20972;SDS011;10645;52.370;13.314;2022-11-12T10:35:35;3.72;;;1.63;;
20972;SDS011;10645;52.370;13.314;2022-11-12T10:38:22;4.45;;;4.00;;
20972;SDS011;10645;52.370;13.314;2022-11-12T10:41:17;3.70;;;2.03;;
20972;SDS011;10645;52.370;13.314;2022-11-12T10:44:05;3.22;;;2.53;;
20972;SDS011;10645;52.370;13.314;2022-11-12T10:50:15;3.70;;;3.38;;
20972;SDS011;10645;52.370;13.314;2022-11-12T10:53:04;5.43;;;4.80;;
20972;SDS011;10645;52.370;13.314;2022-11-12T10:55:54;2.80;;;2.60;;
20972;SDS011;10645;52.370;13.314;2022-11-12T10:58:43;4.82;;;2.55;;
20972;SDS011;10645;52.370;13.314;2022-11-12T11:01:28;4.68;;;4.00;;
20972;SDS011;10645;52.370;13.314;2022-11-12T11:04:16;3.58;;;2.17;;
20972;SDS011;10645;52.370;13.314;2022-11-12T11:07:21;4.57;;;4.13;;
20972;SDS011;10645;52.370;13.314;2022-11-12T11:10:10;5.57;;;3.25;;
20972;SDS011;10645;52.370;13.314;2022-11-12T11:13:08;5.68;;;4.07;;
20972;SDS011;10645;52.370;13.314;2022-11-12T11:16:04;4.60;;;3.70;;
20972;SDS011;10645;52.370;13.314;2022-11-12T11:18:52;5.43;;;3.08;;
20972;SDS011;10645;52.370;13.314;2022-11-12T11:21:46;4.53;;;3.67;;
20972;SDS011;10645;52.370;13.314;2022-11-12T11:25:05;3.88;;;3.38;;
20972;SDS011;10645;52.370;13.314;2022-11-12T11:28:02;5.10;;;4.15;;
20972;SDS011;10645;52.370;13.314;2022-11-12T11:31:18;7.22;;;4.65;;
20972;SDS011;10645;52.370;13.314;2022-11-12T11:34:28;6.80;;;3.22;;
20972;SDS011;10645;52.370;13.314;2022-11-12T11:38:04;8.15;;;4.20;;
20972;SDS011;10645;52.370;13.314;2022-11-12T11:44:09;5.53;;;3.38;;
20972;SDS011;10645;52.370;13.314;2022-11-12T11:47:04;6.68;;;5.15;;
20972;SDS011;10645;52.370;13.314;2022-11-12T11:50:14;9.70;;;5.65;;
20972;SDS011;10645;52.370;13.314;2022-11-12T11:53:28;9.88;;;3.70;;
20972;SDS011;10645;52.370;13.314;2022-11-12T11:56:40;4.60;;;2.95;;
20972;SDS011;10645;52.370;13.314;2022-11-12T11:59:42;5.63;;;2.92;;
20972;SDS011;10645;52.370;13.314;2022-11-12T12:03:04;2.92;;;2.30;;
20972;SDS011;10645;52.370;13.314;2022-11-12T12:18:17;3.08;;;2.75;;
20972;SDS011;10645;52.370;13.314;2022-11-12T12:21:08;7.70;;;4.38;;
20972;SDS011;10645;52.370;13.314;2022-11-12T12:24:08;7.32;;;3.25;;
20972;SDS011;10645;52.370;13.314;2022-11-12T12:27:03;9.07;;;3.00;;
20972;SDS011;10645;52.370;13.314;2022-11-12T12:29:55;6.65;;;3.55;;
20972;SDS011;10645;52.370;13.314;2022-11-12T12:35:55;3.55;;;2.35;;
20972;SDS011;10645;52.370;13.314;2022-11-12T12:38:47;5.43;;;3.00;;
20972;SDS011;10645;52.370;13.314;2022-11-12T12:41:40;6.30;;;3.40;;
20972;SDS011;10645;52.370;13.314;2022-11-12T12:44:46;9.15;;;3.55;;
20972;SDS011;10645;52.370;13.314;2022-11-12T12:47:43;7.03;;;4.32;;
20972;SDS011;10645;52.370;13.314;2022-11-12T12:50:28;6.53;;;4.32;;
20972;SDS011;10645;52.370;13.314;2022-11-12T12:53:15;4.15;;;3.38;;
20972;SDS011;10645;52.370;13.314;2022-11-12T12:58:57;4.32;;;3.50;;
20972;SDS011;10645;52.370;13.314;2022-11-12T13:01:52;6.03;;;5.18;;
20972;SDS011;10645;52.370;13.314;2022-11-12T13:04:52;3.13;;;2.83;;
20972;SDS011;10645;52.370;13.314;2022-11-12T13:07:40;3.53;;;3.22;;
20972;SDS011;10645;52.370;13.314;2022-11-12T13:16:01;6.22;;;3.95;;
20972;SDS011;10645;52.370;13.314;2022-11-12T13:21:34;5.18;;;4.00;;
20972;SDS011;10645;52.370;13.314;2022-11-12T13:24:21;3.80;;;3.17;;
20972;SDS011;10645;52.370;13.314;2022-11-12T13:33:19;7.82;;;3.72;;
20972;SDS011;10645;52.370;13.314;2022-11-12T13:36:23;2.88;;;2.40;;
20972;SDS011;10645;52.370;13.314;2022-11-12T13:39:11;7.78;;;2.45;;
20972;SDS011;10645;52.370;13.314;2022-11-12T13:42:01;3.47;;;2.47;;
20972;SDS011;10645;52.370;13.314;2022-11-12T13:45:15;3.05;;;2.85;;
20972;SDS011;10645;52.370;13.314;2022-11-12T13:48:04;5.15;;;2.88;;
20972;SDS011;10645;52.370;13.314;2022-11-12T13:50:59;6.38;;;3.45;;
20972;SDS011;10645;52.370;13.314;2022-11-12T13:53:46;5.13;;;3.53;;
20972;SDS011;10645;52.370;13.314;2022-11-12T13:56:32;4.13;;;2.15;;
20972;SDS011;10645;52.370;13.314;2022-11-12T13:59:19;2.97;;;2.63;;
20972;SDS011;10645;52.370;13.314;2022-11-12T14:02:14;4.13;;;3.58;;
20972;SDS011;10645;52.370;13.314;2022-11-12T14:05:03;2.05;;;1.88;;
20972;SDS011;10645;52.370;13.314;2022-11-12T14:11:42;2.88;;;2.63;;
20972;SDS011;10645;52.370;13.314;2022-11-12T14:18:00;5.40;;;3.17;;
20972;SDS011;10645;52.370;13.314;2022-11-12T14:20:53;4.20;;;3.80;;
20972;SDS011;10645;52.370;13.314;2022-11-12T14:23:39;5.75;;;3.80;;
20972;SDS011;10645;52.370;13.314;2022-11-12T14:26:39;5.18;;;3.70;;
20972;SDS011;10645;52.370;13.314;2022-11-12T14:29:25;4.20;;;3.15;;
20972;SDS011;10645;52.370;13.314;2022-11-12T14:32:10;2.75;;;2.47;;
20972;SDS011;10645;52.370;13.314;2022-11-12T14:34:55;2.42;;;2.13;;
20972;SDS011;10645;52.370;13.314;2022-11-12T14:37:40;1.75;;;1.48;;
20972;SDS011;10645;52.370;13.314;2022-11-12T14:40:26;2.88;;;1.90;;
20972;SDS011;10645;52.370;13.314;2022-11-12T14:43:16;2.15;;;2.00;;
20972;SDS011;10645;52.370;13.314;2022-11-12T14:46:26;2.97;;;2.60;;
20972;SDS011;10645;52.370;13.314;2022-11-12T14:52:30;5.72;;;2.90;;
20972;SDS011;10645;52.370;13.314;2022-11-12T14:55:20;5.80;;;3.05;;
20972;SDS011;10645;52.370;13.314;2022-11-12T14:58:12;3.90;;;1.98;;
20972;SDS011;10645;52.370;13.314;2022-11-12T15:01:01;4.13;;;2.45;;
20972;SDS011;10645;52.370;13.314;2022-11-12T15:04:03;3.03;;;2.25;;
20972;SDS011;10645;52.370;13.314;2022-11-12T15:07:25;5.28;;;3.35;;
20972;SDS011;10645;52.370;13.314;2022-11-12T15:13:36;2.67;;;2.38;;
20972;SDS011;10645;52.370;13.314;2022-11-12T15:16:24;3.42;;;2.33;;
20972;SDS011;10645;52.370;13.314;2022-11-12T15:19:21;3.83;;;2.90;;
20972;SDS011;10645;52.370;13.314;2022-11-12T15:22:15;4.60;;;3.97;;
20972;SDS011;10645;52.370;13.314;2022-11-12T15:25:08;6.90;;;2.75;;
20972;SDS011;10645;52.370;13.314;2022-11-12T15:27:55;3.78;;;2.08;;
20972;SDS011;10645;52.370;13.314;2022-11-12T15:31:06;3.35;;;2.80;;
20972;SDS011;10645;52.370;13.314;2022-11-12T15:34:17;3.50;;;1.92;;
20972;SDS011;10645;52.370;13.314;2022-11-12T15:40:05;4.88;;;2.78;;
20972;SDS011;10645;52.370;13.314;2022-11-12T15:42:59;4.93;;;3.22;;
20972;SDS011;10645;52.370;13.314;2022-11-12T15:45:46;2.42;;;2.28;;
20972;SDS011;10645;52.370;13.314;2022-11-12T15:48:32;3.35;;;3.15;;
20972;SDS011;10645;52.370;13.314;2022-11-12T15:51:17;3.38;;;3.00;;
20972;SDS011;10645;52.370;13.314;2022-11-12T15:54:02;5.95;;;5.30;;
20972;SDS011;10645;52.370;13.314;2022-11-12T15:56:47;8.10;;;3.35;;
20972;SDS011;10645;52.370;13.314;2022-11-12T15:59:32;2.92;;;2.75;;
20972;SDS011;10645;52.370;13.314;2022-11-12T16:02:17;3.35;;;2.38;;
20972;SDS011;10645;52.370;13.314;2022-11-12T16:05:02;2.38;;;2.00;;
20972;SDS011;10645;52.370;13.314;2022-11-12T16:07:46;4.72;;;2.80;;
20972;SDS011;10645;52.370;13.314;2022-11-12T16:10:31;7.70;;;3.65;;
20972;SDS011;10645;52.370;13.314;2022-11-12T16:16:09;4.65;;;2.72;;
20972;SDS011;10645;52.370;13.314;2022-11-12T16:18:54;2.40;;;2.03;;
20972;SDS011;10645;52.370;13.314;2022-11-12T16:21:39;4.50;;;3.33;;
20972;SDS011;10645;52.370;13.314;2022-11-12T16:24:24;2.73;;;2.53;;
20972;SDS011;10645;52.370;13.314;2022-11-12T16:27:10;4.30;;;3.87;;
20972;SDS011;10645;52.370;13.314;2022-11-12T16:29:56;3.30;;;2.13;;
20972;SDS011;10645;52.370;13.314;2022-11-12T16:32:41;3.33;;;3.00;;
20972;SDS011;10645;52.370;13.314;2022-11-12T16:35:27;4.87;;;2.67;;
20972;SDS011;10645;52.370;13.314;2022-11-12T16:38:13;4.03;;;1.70;;
20972;SDS011;10645;52.370;13.314;2022-11-12T16:40:59;4.53;;;3.63;;
20972;SDS011;10645;52.370;13.314;2022-11-12T16:43:44;3.53;;;3.27;;
20972;SDS011;10645;52.370;13.314;2022-11-12T16:46:29;3.07;;;2.87;;
20972;SDS011;10645;52.370;13.314;2022-11-12T16:49:19;12.27;;;4.53;;
20972;SDS011;10645;52.370;13.314;2022-11-12T16:52:04;3.13;;;1.17;;
20972;SDS011;10645;52.370;13.314;2022-11-12T16:54:48;2.70;;;1.60;;
20972;SDS011;10645;52.370;13.314;2022-11-12T16:57:33;3.83;;;2.03;;
20972;SDS011;10645;52.370;13.314;2022-11-12T17:00:18;10.00;;;3.83;;
20972;SDS011;10645;52.370;13.314;2022-11-12T17:03:03;3.80;;;2.27;;
20972;SDS011;10645;52.370;13.314;2022-11-12T17:05:49;3.33;;;3.03;;
20972;SDS011;10645;52.370;13.314;2022-11-12T17:08:35;2.53;;;2.43;;
20972;SDS011;10645;52.370;13.314;2022-11-12T17:11:20;2.37;;;2.27;;
20972;SDS011;10645;52.370;13.314;2022-11-12T17:14:05;4.63;;;3.37;;
20972;SDS011;10645;52.370;13.314;2022-11-12T17:16:50;2.37;;;2.17;;
20972;SDS011;10645;52.370;13.314;2022-11-12T17:19:35;1.97;;;1.77;;
20972;SDS011;10645;52.370;13.314;2022-11-12T17:22:19;4.33;;;3.70;;
20972;SDS011;10645;52.370;13.314;2022-11-12T17:25:05;3.37;;;3.07;;
20972;SDS011;10645;52.370;13.314;2022-11-12T17:27:51;2.33;;;1.80;;
20972;SDS011;10645;52.370;13.314;2022-11-12T17:30:36;1.87;;;1.73;;
20972;SDS011;10645;52.370;13.314;2022-11-12T17:33:20;3.93;;;1.67;;
20972;SDS011;10645;52.370;13.314;2022-11-12T17:36:06;4.07;;;2.17;;
20972;SDS011;10645;52.370;13.314;2022-11-12T17:38:56;3.03;;;2.83;;
20972;SDS011;10645;52.370;13.314;2022-11-12T17:41:42;4.03;;;2.10;;
20972;SDS011;10645;52.370;13.314;2022-11-12T17:44:26;3.77;;;2.13;;
20972;SDS011;10645;52.370;13.314;2022-11-12T17:47:11;1.67;;;1.67;;
20972;SDS011;10645;52.370;13.314;2022-11-12T17:49:56;3.30;;;2.97;;